createdAt,value
2024-05-09T00:00:40.371Z,7.10
2024-05-09T00:03:28.267Z,6.22
2024-05-09T00:05:55.705Z,6.78
2024-05-09T00:08:22.790Z,6.20
2024-05-09T00:10:50.069Z,7.00
2024-05-09T00:13:16.970Z,7.10
2024-05-09T00:15:44.161Z,6.18
2024-05-09T00:18:11.188Z,5.88
2024-05-09T00:20:40.850Z,6.30
2024-05-09T00:23:10.691Z,6.60
2024-05-09T00:25:38.657Z,5.40
2024-05-09T00:28:06.158Z,5.78
2024-05-09T00:30:36.054Z,5.07
2024-05-09T00:33:06.265Z,5.35
2024-05-09T00:35:34.905Z,5.00
2024-05-09T00:38:02.076Z,4.72
2024-05-09T00:40:40.987Z,4.55
2024-05-09T00:43:14.505Z,4.82
2024-05-09T00:45:43.193Z,4.40
2024-05-09T00:48:14.336Z,4.45
2024-05-09T00:50:45.310Z,4.60
2024-05-09T00:53:15.520Z,4.47
2024-05-09T00:55:44.254Z,5.00
2024-05-09T00:58:14.922Z,4.10
2024-05-09T01:00:44.465Z,4.22
2024-05-09T01:03:13.514Z,5.47
2024-05-09T01:05:43.207Z,4.47
2024-05-09T01:08:11.701Z,4.50
2024-05-09T01:10:41.723Z,4.03
2024-05-09T01:13:10.851Z,4.00
2024-05-09T01:15:38.061Z,4.43
2024-05-09T01:18:09.435Z,4.00
2024-05-09T01:20:42.059Z,4.35
2024-05-09T01:23:12.263Z,4.70
2024-05-09T01:25:39.979Z,5.57
2024-05-09T01:28:07.176Z,3.85
2024-05-09T01:30:36.829Z,4.35
2024-05-09T01:33:09.849Z,4.88
2024-05-09T01:35:41.236Z,4.72
2024-05-09T01:38:09.974Z,4.88
2024-05-09T01:40:39.841Z,4.38
2024-05-09T01:43:08.818Z,4.53
2024-05-09T01:45:37.215Z,4.20
2024-05-09T01:48:04.823Z,4.75
2024-05-09T01:50:38.523Z,4.70
2024-05-09T01:53:12.673Z,5.32
2024-05-09T01:55:40.643Z,5.22
2024-05-09T01:58:07.684Z,4.10
2024-05-09T02:00:40.099Z,4.25
2024-05-09T02:03:16.068Z,4.50
2024-05-09T02:05:47.282Z,3.80
2024-05-09T02:08:22.052Z,4.13
2024-05-09T02:10:50.476Z,4.82
2024-05-09T02:13:17.650Z,4.32
2024-05-09T02:15:45.160Z,4.05
2024-05-09T02:18:12.614Z,3.75
2024-05-09T02:20:41.332Z,3.85
2024-05-09T02:23:09.425Z,4.63
2024-05-09T02:25:36.853Z,3.58
2024-05-09T02:28:03.769Z,4.38
2024-05-09T02:30:39.280Z,3.38
2024-05-09T02:33:10.948Z,3.55
2024-05-09T02:35:40.416Z,4.03
2024-05-09T02:38:09.332Z,3.67
2024-05-09T02:40:38.967Z,4.22
2024-05-09T02:45:35.530Z,3.60
2024-05-09T02:48:02.769Z,4.20
2024-05-09T02:50:37.210Z,3.90
2024-05-09T02:53:09.839Z,4.28
2024-05-09T02:55:41.305Z,4.05
2024-05-09T02:58:08.522Z,3.88
2024-05-09T03:00:39.805Z,4.30
2024-05-09T03:03:10.977Z,3.95
2024-05-09T03:05:40.796Z,4.10
2024-05-09T03:08:08.049Z,4.25
2024-05-09T03:10:37.816Z,3.60
2024-05-09T03:13:11.908Z,4.20
2024-05-09T03:15:39.888Z,3.60
2024-05-09T03:18:07.242Z,4.03
2024-05-09T03:20:36.211Z,4.72
2024-05-09T03:23:05.383Z,3.90
2024-05-09T03:25:33.563Z,4.07
2024-05-09T03:28:00.502Z,3.97
2024-05-09T03:30:38.833Z,3.78
2024-05-09T03:33:15.354Z,4.75
2024-05-09T03:35:44.134Z,4.50
2024-05-09T03:38:11.048Z,4.78
2024-05-09T03:40:47.900Z,4.47
2024-05-09T03:43:15.763Z,4.78
2024-05-09T03:45:43.762Z,4.50
2024-05-09T03:48:11.039Z,4.40
2024-05-09T03:50:38.637Z,4.28
2024-05-09T03:53:06.044Z,4.18
2024-05-09T03:55:33.297Z,4.03
2024-05-09T03:58:00.217Z,4.20
2024-05-09T04:00:35.506Z,4.75
2024-05-09T04:03:08.234Z,4.68
2024-05-09T04:05:39.698Z,4.20
2024-05-09T04:08:07.452Z,3.83
2024-05-09T04:10:35.448Z,4.35
2024-05-09T04:13:03.294Z,4.13
2024-05-09T04:15:31.023Z,4.47
2024-05-09T04:17:58.118Z,4.45
2024-05-09T04:20:35.982Z,4.75
2024-05-09T04:23:07.516Z,4.85
2024-05-09T04:25:35.541Z,5.20
2024-05-09T04:28:02.470Z,6.13
2024-05-09T04:30:37.445Z,6.38
2024-05-09T04:33:09.409Z,6.63
2024-05-09T04:35:39.040Z,6.65
2024-05-09T04:38:06.292Z,6.22
2024-05-09T04:40:36.399Z,6.60
2024-05-09T04:43:05.846Z,7.30
2024-05-09T04:45:33.323Z,7.72
2024-05-09T04:48:01.024Z,7.38
2024-05-09T04:50:36.317Z,8.50
2024-05-09T04:53:08.205Z,8.75
2024-05-09T04:55:36.848Z,9.15
2024-05-09T04:58:03.769Z,10.07
2024-05-09T05:00:36.416Z,9.27
2024-05-09T05:03:10.811Z,10.30
2024-05-09T05:05:41.269Z,9.85
2024-05-09T05:08:16.895Z,9.07
2024-05-09T05:10:46.052Z,9.48
2024-05-09T05:13:20.005Z,9.68
2024-05-09T05:15:58.363Z,9.73
2024-05-09T05:18:28.578Z,9.85
2024-05-09T05:20:56.849Z,9.32
2024-05-09T05:23:24.387Z,10.52
2024-05-09T05:25:53.362Z,10.25
2024-05-09T05:28:21.177Z,10.65
2024-05-09T05:30:48.373Z,10.95
2024-05-09T05:33:18.389Z,10.68
2024-05-09T05:35:46.070Z,9.88
2024-05-09T05:38:13.051Z,9.88
2024-05-09T05:40:41.050Z,10.95
2024-05-09T05:43:10.263Z,9.82
2024-05-09T05:45:38.228Z,10.52
2024-05-09T05:48:06.871Z,9.82
2024-05-09T05:50:37.245Z,11.15
2024-05-09T05:53:06.475Z,8.57
2024-05-09T05:55:33.969Z,9.45
2024-05-09T05:58:03.853Z,10.07
2024-05-09T06:00:38.209Z,9.02
2024-05-09T06:03:08.212Z,8.85
2024-05-09T06:05:36.969Z,8.23
2024-05-09T06:08:04.309Z,8.40
2024-05-09T06:10:38.017Z,9.52
2024-05-09T06:13:07.840Z,9.13
2024-05-09T06:15:35.052Z,8.57
2024-05-09T06:18:04.636Z,8.10
2024-05-09T06:20:36.395Z,9.80
2024-05-09T06:23:06.345Z,9.23
2024-05-09T06:25:34.817Z,8.32
2024-05-09T06:28:01.978Z,7.90
2024-05-09T06:30:37.611Z,8.30
2024-05-09T06:33:09.237Z,8.00
2024-05-09T06:35:37.482Z,9.10
2024-05-09T06:38:04.905Z,5.72
2024-05-09T06:40:38.183Z,7.22
2024-05-09T06:43:14.332Z,8.48
2024-05-09T06:45:42.072Z,7.43
2024-05-09T06:48:09.856Z,7.45
2024-05-09T06:50:39.384Z,8.20
2024-05-09T06:53:07.997Z,8.40
2024-05-09T06:55:36.419Z,6.57
2024-05-09T06:58:05.897Z,7.82
2024-05-09T07:00:38.920Z,6.25
2024-05-09T07:03:13.659Z,6.15
2024-05-09T07:05:43.380Z,5.70
2024-05-09T07:08:10.471Z,6.00
2024-05-09T07:10:38.143Z,7.20
2024-05-09T07:13:13.225Z,6.40
2024-05-09T07:15:41.555Z,6.65
2024-05-09T07:18:13.238Z,5.45
2024-05-09T07:20:41.344Z,5.15
2024-05-09T07:23:14.892Z,5.03
2024-05-09T07:25:42.459Z,5.65
2024-05-09T07:28:17.544Z,5.68
2024-05-09T07:30:45.237Z,6.18
2024-05-09T07:33:20.011Z,5.97
2024-05-09T07:35:48.681Z,5.47
2024-05-09T07:38:15.649Z,4.82
2024-05-09T07:40:43.141Z,5.45
2024-05-09T07:43:14.207Z,5.95
2024-05-09T07:45:50.689Z,5.70
2024-05-09T07:52:39.065Z,5.90
2024-05-09T07:53:46.975Z,5.13
2024-05-09T07:56:18.278Z,4.50
2024-05-09T07:58:46.079Z,4.60
2024-05-09T08:01:13.384Z,5.00
2024-05-09T08:03:40.363Z,4.57
2024-05-09T08:06:07.858Z,3.97
2024-05-09T08:08:34.614Z,4.60
2024-05-09T08:11:03.018Z,4.50
2024-05-09T08:13:29.853Z,4.38
2024-05-09T08:15:57.063Z,3.08
2024-05-09T08:18:24.048Z,2.65
2024-05-09T08:20:51.370Z,3.50
2024-05-09T08:23:18.273Z,3.08
2024-05-09T08:25:45.437Z,3.60
2024-05-09T08:28:12.908Z,3.35
2024-05-09T08:30:40.314Z,3.00
2024-05-09T08:33:08.036Z,3.63
2024-05-09T08:35:36.143Z,2.92
2024-05-09T08:38:03.859Z,2.47
2024-05-09T08:40:36.294Z,2.65
2024-05-09T08:43:10.995Z,2.63
2024-05-09T08:45:43.593Z,2.47
2024-05-09T08:48:14.144Z,3.20
2024-05-09T08:50:42.512Z,2.65
2024-05-09T08:53:10.007Z,2.85
2024-05-09T08:55:41.525Z,2.85
2024-05-09T08:58:16.200Z,2.75
2024-05-09T09:00:45.191Z,2.40
2024-05-09T09:03:19.236Z,2.85
2024-05-09T09:05:58.465Z,3.40
2024-05-09T09:08:26.423Z,2.88
2024-05-09T09:10:59.244Z,3.15
2024-05-09T09:13:26.725Z,2.42
2024-05-09T09:15:57.837Z,2.88
2024-05-09T09:18:26.430Z,2.85
2024-05-09T09:20:53.911Z,2.97
2024-05-09T09:23:20.665Z,2.75
2024-05-09T09:25:48.125Z,2.90
2024-05-09T09:28:15.373Z,2.55
2024-05-09T09:30:43.523Z,3.10
2024-05-09T09:33:11.262Z,3.35
2024-05-09T09:35:40.529Z,3.20
2024-05-09T09:38:08.364Z,2.83
2024-05-09T09:40:40.635Z,2.85
2024-05-09T09:43:17.598Z,3.60
2024-05-09T09:45:46.432Z,3.42
2024-05-09T09:48:15.443Z,2.60
2024-05-09T09:50:43.232Z,2.92
2024-05-09T09:53:11.402Z,2.75
2024-05-09T09:55:40.208Z,2.42
2024-05-09T09:58:13.469Z,2.53
2024-05-09T10:00:42.211Z,3.30
2024-05-09T10:03:09.403Z,2.58
2024-05-09T10:05:38.322Z,2.75
2024-05-09T10:10:53.364Z,2.97
2024-05-09T10:13:20.401Z,2.65
2024-05-09T10:15:51.870Z,2.97
2024-05-09T10:18:28.093Z,3.00
2024-05-09T10:20:59.594Z,3.17
2024-05-09T10:23:30.810Z,3.28
2024-05-09T10:26:06.323Z,2.72
2024-05-09T10:28:36.023Z,2.67
2024-05-09T10:31:08.376Z,2.47
2024-05-09T10:33:39.961Z,3.08
2024-05-09T10:36:14.482Z,2.80
2024-05-09T10:38:42.856Z,2.85
2024-05-09T10:41:11.117Z,3.22
2024-05-09T10:43:41.670Z,2.80
2024-05-09T10:46:17.188Z,3.03
2024-05-09T10:48:49.624Z,2.97
2024-05-09T10:51:19.553Z,2.50
2024-05-09T10:53:48.328Z,2.70
2024-05-09T10:56:17.205Z,3.00
2024-05-09T10:58:44.596Z,2.75
2024-05-09T11:01:13.470Z,2.70
2024-05-09T11:03:40.987Z,2.90
2024-05-09T11:06:09.887Z,3.17
2024-05-09T11:08:37.808Z,2.78
2024-05-09T11:11:08.081Z,3.20
2024-05-09T11:13:37.908Z,2.78
2024-05-09T11:16:07.230Z,2.47
2024-05-09T11:18:38.084Z,2.50
2024-05-09T11:21:13.775Z,2.58
2024-05-09T11:23:41.439Z,2.97
2024-05-09T11:26:10.725Z,2.50
2024-05-09T11:28:37.819Z,3.10
2024-05-09T11:31:07.715Z,2.60
2024-05-09T11:33:43.730Z,3.05
2024-05-09T11:36:11.215Z,2.92
2024-05-09T11:38:38.089Z,2.83
2024-05-09T11:41:06.188Z,3.10
2024-05-09T11:43:33.555Z,3.45
2024-05-09T11:46:02.660Z,2.92
2024-05-09T11:48:30.116Z,2.75
2024-05-09T11:50:58.605Z,2.33
2024-05-09T11:53:25.627Z,2.97
2024-05-09T11:55:53.300Z,3.30
2024-05-09T11:58:22.913Z,3.60
2024-05-09T12:00:50.569Z,2.67
2024-05-09T12:03:17.577Z,3.30
2024-05-09T12:05:45.387Z,2.45
2024-05-09T12:08:12.706Z,2.65
2024-05-09T12:13:07.679Z,2.55
2024-05-09T12:15:37.915Z,2.67
2024-05-09T12:18:06.594Z,2.50
2024-05-09T12:20:38.239Z,2.20
2024-05-09T12:23:09.484Z,2.50
2024-05-09T12:25:39.198Z,2.60
2024-05-09T12:28:07.314Z,2.58
2024-05-09T12:30:39.702Z,2.50
2024-05-09T12:33:09.628Z,2.67
2024-05-09T12:35:37.192Z,2.58
2024-05-09T12:38:04.535Z,2.55
2024-05-09T12:40:36.640Z,2.13
2024-05-09T12:43:09.582Z,2.70
2024-05-09T12:45:38.115Z,2.30
2024-05-09T12:48:08.355Z,2.20
2024-05-09T12:50:38.953Z,2.25
2024-05-09T12:53:05.961Z,2.70
2024-05-09T12:55:41.283Z,2.60
2024-05-09T12:58:17.165Z,2.50
2024-05-09T13:00:45.245Z,2.40
2024-05-09T13:03:12.774Z,2.40
2024-05-09T13:05:45.139Z,2.95
2024-05-09T13:08:13.761Z,2.28
2024-05-09T13:10:41.441Z,2.33
2024-05-09T13:13:11.793Z,2.83
2024-05-09T13:15:39.372Z,2.55
2024-05-09T13:18:07.090Z,2.78
2024-05-09T13:23:05.797Z,2.83
2024-05-09T13:25:34.923Z,2.90
2024-05-09T13:28:02.946Z,2.80
2024-05-09T13:30:38.809Z,3.15
2024-05-09T13:33:12.873Z,3.03
2024-05-09T13:35:46.635Z,2.58
2024-05-09T13:38:17.215Z,3.10
2024-05-09T13:40:44.963Z,2.53
2024-05-09T13:43:12.111Z,3.10
2024-05-09T13:45:39.631Z,3.08
2024-05-09T13:48:07.364Z,3.35
2024-05-09T13:50:36.609Z,3.03
2024-05-09T13:53:06.573Z,3.53
2024-05-09T13:55:37.274Z,2.92
2024-05-09T14:00:42.187Z,3.50
2024-05-09T14:03:19.740Z,3.10
2024-05-09T14:05:50.143Z,2.90
2024-05-09T14:08:20.124Z,2.85
2024-05-09T14:10:48.853Z,2.88
2024-05-09T14:13:16.320Z,2.77
2024-05-09T14:15:43.848Z,2.75
2024-05-09T14:18:13.516Z,2.50
2024-05-09T14:20:42.704Z,3.00
2024-05-09T14:23:09.881Z,3.08
2024-05-09T14:25:42.026Z,3.60
2024-05-09T14:28:11.186Z,3.30
2024-05-09T14:30:39.319Z,2.67
2024-05-09T14:33:07.713Z,2.85
2024-05-09T14:35:37.370Z,3.10
2024-05-09T14:38:04.846Z,3.03
2024-05-09T14:40:40.515Z,2.95
2024-05-09T14:43:14.897Z,3.35
2024-05-09T14:45:43.620Z,3.22
2024-05-09T14:48:11.968Z,3.00
2024-05-09T14:50:40.741Z,2.90
2024-05-09T14:53:12.895Z,3.03
2024-05-09T14:55:42.158Z,2.67
2024-05-09T14:58:11.127Z,2.75
2024-05-09T15:00:46.111Z,3.07
2024-05-09T15:03:17.163Z,3.15
2024-05-09T15:05:45.273Z,3.05
2024-05-09T15:08:12.319Z,3.53
2024-05-09T15:10:39.752Z,3.10
2024-05-09T15:13:08.740Z,2.88
2024-05-09T15:15:37.322Z,2.60
2024-05-09T15:18:05.566Z,3.42
2024-05-09T15:20:36.196Z,2.67
2024-05-09T15:23:05.354Z,2.70
2024-05-09T15:25:33.867Z,3.10
2024-05-09T15:28:01.182Z,2.67
2024-05-09T15:30:32.050Z,2.75
2024-05-09T15:33:01.374Z,2.75
2024-05-09T15:35:29.330Z,2.83
2024-05-09T15:37:56.685Z,3.08
2024-05-09T15:40:34.776Z,2.22
2024-05-09T15:43:07.133Z,2.50
2024-05-09T15:45:35.175Z,2.35
2024-05-09T15:48:03.310Z,2.65
2024-05-09T15:50:37.644Z,2.83
2024-05-09T15:53:09.174Z,2.42
2024-05-09T15:55:38.098Z,2.78
2024-05-09T15:58:07.162Z,2.58
2024-05-09T16:00:39.457Z,2.78
2024-05-09T16:03:10.099Z,2.53
2024-05-09T16:05:38.312Z,3.17
2024-05-09T16:08:06.146Z,3.25
2024-05-09T16:10:34.785Z,3.15
2024-05-09T16:13:03.212Z,3.88
2024-05-09T16:15:31.189Z,3.00
2024-05-09T16:17:58.242Z,2.75
2024-05-09T16:20:34.337Z,3.00
2024-05-09T16:23:07.601Z,3.15
2024-05-09T16:25:35.000Z,2.97
2024-05-09T16:28:05.766Z,3.17
2024-05-09T16:30:36.394Z,2.90
2024-05-09T16:33:05.125Z,3.83
2024-05-09T16:35:34.602Z,3.75
2024-05-09T16:38:02.946Z,3.57
2024-05-09T16:40:37.420Z,3.83
2024-05-09T16:43:08.309Z,3.33
2024-05-09T16:45:36.752Z,3.47
2024-05-09T16:48:04.179Z,3.45
2024-05-09T16:50:34.638Z,3.42
2024-05-09T16:53:03.984Z,4.10
2024-05-09T16:55:31.756Z,3.95
2024-05-09T16:57:58.824Z,3.53
2024-05-09T17:00:36.174Z,3.63
2024-05-09T17:03:09.903Z,3.70
2024-05-09T17:05:38.098Z,5.97
2024-05-09T17:08:05.758Z,6.72
2024-05-09T17:10:34.973Z,4.47
2024-05-09T17:13:04.261Z,26.75
2024-05-09T17:15:32.904Z,26.90
2024-05-09T17:18:00.688Z,11.82
2024-05-09T17:20:33.235Z,6.55
2024-05-09T17:23:03.525Z,4.28
2024-05-09T17:25:30.739Z,3.65
2024-05-09T17:27:59.588Z,4.03
2024-05-09T17:30:32.557Z,3.50
2024-05-09T17:33:08.410Z,3.83
2024-05-09T17:35:36.831Z,3.15
2024-05-09T17:38:05.401Z,3.78
2024-05-09T17:40:35.714Z,5.30
2024-05-09T17:43:05.560Z,5.32
2024-05-09T17:45:33.766Z,3.58
2024-05-09T17:48:01.154Z,4.10
2024-05-09T17:50:35.194Z,3.95
2024-05-09T17:53:05.537Z,4.68
2024-05-09T17:55:33.194Z,4.00
2024-05-09T17:58:00.616Z,4.63
2024-05-09T18:00:37.228Z,3.65
2024-05-09T18:03:08.381Z,4.00
2024-05-09T18:05:37.230Z,3.55
2024-05-09T18:08:06.110Z,3.78
2024-05-09T18:10:37.461Z,3.40
2024-05-09T18:13:10.363Z,3.70
2024-05-09T18:15:38.429Z,4.57
2024-05-09T18:18:06.325Z,3.90
2024-05-09T18:20:41.786Z,4.00
2024-05-09T18:23:13.988Z,3.90
2024-05-09T18:25:41.873Z,3.80
2024-05-09T18:28:08.960Z,3.95
2024-05-09T18:30:37.367Z,4.65
2024-05-09T18:33:07.058Z,3.88
2024-05-09T18:35:36.510Z,5.70
2024-05-09T18:38:05.059Z,12.43
2024-05-09T18:40:36.004Z,21.10
2024-05-09T18:43:07.245Z,20.38
2024-05-09T18:45:37.761Z,15.30
2024-05-09T18:48:06.455Z,9.93
2024-05-09T18:50:37.950Z,9.67
2024-05-09T18:53:07.765Z,8.85
2024-05-09T18:55:35.103Z,7.15
2024-05-09T18:58:02.460Z,8.43
2024-05-09T19:00:35.657Z,7.78
2024-05-09T19:03:10.545Z,9.20
2024-05-09T19:05:40.747Z,10.73
2024-05-09T19:08:08.633Z,12.25
2024-05-09T19:10:38.724Z,10.93
2024-05-09T19:15:40.477Z,10.93
2024-05-09T19:18:08.160Z,10.48
2024-05-09T19:20:36.856Z,9.05
2024-05-09T19:23:06.179Z,9.67
2024-05-09T19:25:34.399Z,11.00
2024-05-09T19:28:01.571Z,9.88
2024-05-09T19:30:37.286Z,11.55
2024-05-09T19:33:08.415Z,10.67
2024-05-09T19:35:35.968Z,10.77
2024-05-09T19:38:03.244Z,10.82
2024-05-09T19:40:32.923Z,16.63
2024-05-09T19:43:02.866Z,16.60
2024-05-09T19:45:32.856Z,13.63
2024-05-09T19:48:00.329Z,9.80
2024-05-09T19:50:36.885Z,9.95
2024-05-09T19:53:09.759Z,8.30
2024-05-09T19:55:37.287Z,7.70
2024-05-09T19:58:05.670Z,7.82
2024-05-09T20:03:06.124Z,6.57
2024-05-09T20:05:34.003Z,6.50
2024-05-09T20:08:00.989Z,6.35
2024-05-09T20:10:32.533Z,6.80
2024-05-09T20:13:02.272Z,5.90
2024-05-09T20:15:30.153Z,6.07
2024-05-09T20:17:57.213Z,6.00
2024-05-09T20:20:33.424Z,5.82
2024-05-09T20:23:06.300Z,6.40
2024-05-09T20:25:33.579Z,5.93
2024-05-09T20:28:00.667Z,5.65
2024-05-09T20:30:32.402Z,5.53
2024-05-09T20:33:07.060Z,5.10
2024-05-09T20:35:35.806Z,5.63
2024-05-09T20:38:03.718Z,4.85
2024-05-09T20:40:35.636Z,4.87
2024-05-09T20:43:06.633Z,5.30
2024-05-09T20:45:34.762Z,5.30
2024-05-09T20:48:02.219Z,5.00
2024-05-09T20:50:37.220Z,5.22
2024-05-09T20:53:09.845Z,5.13
2024-05-09T20:55:37.451Z,5.07
2024-05-09T20:58:05.117Z,5.28
2024-05-09T21:00:39.862Z,4.38
2024-05-09T21:03:11.390Z,4.68
2024-05-09T21:05:39.501Z,4.85
2024-05-09T21:08:07.276Z,5.55
2024-05-09T21:10:35.871Z,5.22
2024-05-09T21:13:03.737Z,4.85
2024-05-09T21:15:31.846Z,4.82
2024-05-09T21:17:59.094Z,4.95
2024-05-09T21:20:31.730Z,4.30
2024-05-09T21:23:00.769Z,4.13
2024-05-09T21:25:28.251Z,4.55
2024-05-09T21:27:55.500Z,4.72
2024-05-09T21:30:32.398Z,4.68
2024-05-09T21:33:13.176Z,4.18
2024-05-09T21:35:42.887Z,4.28
2024-05-09T21:38:10.084Z,3.83
2024-05-09T21:40:38.530Z,4.10
2024-05-09T21:43:07.183Z,4.20
2024-05-09T21:45:36.253Z,4.30
2024-05-09T21:48:04.572Z,4.20
2024-05-09T21:50:39.079Z,4.05
2024-05-09T21:53:08.441Z,4.43
2024-05-09T21:55:35.870Z,3.97
2024-05-09T21:58:03.419Z,4.10
2024-05-09T22:00:36.598Z,3.78
2024-05-09T22:03:07.538Z,4.43
2024-05-09T22:05:35.997Z,3.60
2024-05-09T22:08:03.185Z,3.78
2024-05-09T22:10:34.697Z,3.90
2024-05-09T22:13:05.331Z,4.07
2024-05-09T22:15:38.478Z,4.32
2024-05-09T22:18:08.052Z,4.30
2024-05-09T22:20:38.713Z,4.18
2024-05-09T22:23:07.774Z,3.70
2024-05-09T22:25:35.938Z,4.07
2024-05-09T22:28:03.453Z,4.70
2024-05-09T22:30:36.098Z,4.00
2024-05-09T22:33:10.835Z,4.10
2024-05-09T22:35:40.214Z,4.88
2024-05-09T22:38:07.332Z,4.55
2024-05-09T22:40:45.206Z,4.07
2024-05-09T22:43:23.885Z,4.15
2024-05-09T22:45:55.603Z,3.95
2024-05-09T22:48:24.131Z,4.72
2024-05-09T22:50:52.070Z,4.50
2024-05-09T22:53:18.985Z,4.20
2024-05-09T22:55:46.198Z,4.47
2024-05-09T22:58:13.123Z,4.55
2024-05-09T23:00:40.534Z,4.32
2024-05-09T23:03:07.488Z,4.13
2024-05-09T23:05:35.020Z,4.28
2024-05-09T23:08:02.769Z,4.82
2024-05-09T23:10:35.810Z,4.57
2024-05-09T23:13:06.180Z,4.72
2024-05-09T23:15:33.810Z,3.90
2024-05-09T23:18:00.892Z,4.82
2024-05-09T23:20:36.242Z,4.53
2024-05-09T23:23:06.902Z,4.40
2024-05-09T23:25:34.621Z,4.57
2024-05-09T23:28:01.679Z,4.35
2024-05-09T23:30:36.822Z,4.40
2024-05-09T23:33:07.008Z,4.72
2024-05-09T23:35:34.431Z,4.25
2024-05-09T23:38:01.268Z,4.25
2024-05-09T23:40:37.687Z,4.35
2024-05-09T23:43:08.243Z,4.03
2024-05-09T23:45:36.099Z,4.10
2024-05-09T23:48:03.582Z,4.15
2024-05-09T23:50:35.547Z,4.63
2024-05-09T23:53:05.836Z,4.40
2024-05-09T23:55:33.297Z,4.20
2024-05-09T23:58:00.790Z,4.00
